sensor_id;sensor_type;location;lat;lon;timestamp;P1;durP1;ratioP1;P2;durP2;ratioP2
18166;SDS011;9208;42.688;23.404;2023-01-19T00:01:54;22.73;;;5.50;;
18166;SDS011;9208;42.688;23.404;2023-01-19T00:04:19;21.43;;;4.60;;
18166;SDS011;9208;42.688;23.404;2023-01-19T00:06:45;19.97;;;5.47;;
18166;SDS011;9208;42.688;23.404;2023-01-19T00:09:10;17.07;;;4.47;;
18166;SDS011;9208;42.688;23.404;2023-01-19T00:11:36;16.57;;;4.67;;
18166;SDS011;9208;42.688;23.404;2023-01-19T00:14:02;13.90;;;4.47;;
18166;SDS011;9208;42.688;23.404;2023-01-19T00:16:27;21.93;;;4.33;;
18166;SDS011;9208;42.688;23.404;2023-01-19T00:18:53;18.10;;;4.07;;
18166;SDS011;9208;42.688;23.404;2023-01-19T00:21:19;13.67;;;3.30;;
18166;SDS011;9208;42.688;23.404;2023-01-19T00:23:45;14.17;;;4.53;;
18166;SDS011;9208;42.688;23.404;2023-01-19T00:26:11;19.03;;;3.90;;
18166;SDS011;9208;42.688;23.404;2023-01-19T00:28:41;22.63;;;4.07;;
18166;SDS011;9208;42.688;23.404;2023-01-19T00:31:07;14.87;;;4.20;;
18166;SDS011;9208;42.688;23.404;2023-01-19T00:33:32;19.10;;;4.77;;
18166;SDS011;9208;42.688;23.404;2023-01-19T00:35:58;17.20;;;4.03;;
18166;SDS011;9208;42.688;23.404;2023-01-19T00:38:23;13.47;;;3.80;;
18166;SDS011;9208;42.688;23.404;2023-01-19T00:40:49;16.23;;;3.77;;
18166;SDS011;9208;42.688;23.404;2023-01-19T00:43:14;15.73;;;3.77;;
18166;SDS011;9208;42.688;23.404;2023-01-19T00:45:39;22.53;;;4.23;;
18166;SDS011;9208;42.688;23.404;2023-01-19T00:48:06;13.13;;;3.63;;
18166;SDS011;9208;42.688;23.404;2023-01-19T00:50:32;11.27;;;3.53;;
18166;SDS011;9208;42.688;23.404;2023-01-19T00:52:58;16.50;;;4.33;;
18166;SDS011;9208;42.688;23.404;2023-01-19T00:55:27;17.60;;;3.90;;
18166;SDS011;9208;42.688;23.404;2023-01-19T00:57:54;16.13;;;3.33;;
18166;SDS011;9208;42.688;23.404;2023-01-19T01:00:20;13.77;;;3.87;;
18166;SDS011;9208;42.688;23.404;2023-01-19T01:02:47;14.53;;;3.00;;
18166;SDS011;9208;42.688;23.404;2023-01-19T01:05:15;20.70;;;3.83;;
18166;SDS011;9208;42.688;23.404;2023-01-19T01:07:41;21.53;;;4.03;;
18166;SDS011;9208;42.688;23.404;2023-01-19T01:12:39;16.63;;;2.93;;
18166;SDS011;9208;42.688;23.404;2023-01-19T01:15:06;16.93;;;3.20;;
18166;SDS011;9208;42.688;23.404;2023-01-19T01:17:33;18.23;;;3.87;;
18166;SDS011;9208;42.688;23.404;2023-01-19T01:19:58;12.07;;;3.23;;
18166;SDS011;9208;42.688;23.404;2023-01-19T01:22:24;13.87;;;3.30;;
18166;SDS011;9208;42.688;23.404;2023-01-19T01:24:49;15.83;;;3.97;;
18166;SDS011;9208;42.688;23.404;2023-01-19T01:27:15;16.53;;;3.80;;
18166;SDS011;9208;42.688;23.404;2023-01-19T01:29:40;18.53;;;3.20;;
18166;SDS011;9208;42.688;23.404;2023-01-19T01:32:14;17.33;;;3.80;;
18166;SDS011;9208;42.688;23.404;2023-01-19T01:34:40;21.73;;;3.30;;
18166;SDS011;9208;42.688;23.404;2023-01-19T01:37:06;14.33;;;3.67;;
18166;SDS011;9208;42.688;23.404;2023-01-19T01:39:35;15.97;;;3.50;;
18166;SDS011;9208;42.688;23.404;2023-01-19T01:42:01;17.97;;;3.30;;
18166;SDS011;9208;42.688;23.404;2023-01-19T01:47:15;12.43;;;2.90;;
18166;SDS011;9208;42.688;23.404;2023-01-19T01:49:45;22.57;;;3.50;;
18166;SDS011;9208;42.688;23.404;2023-01-19T01:52:12;13.30;;;3.40;;
18166;SDS011;9208;42.688;23.404;2023-01-19T01:54:40;15.97;;;3.33;;
18166;SDS011;9208;42.688;23.404;2023-01-19T01:57:06;15.00;;;2.80;;
18166;SDS011;9208;42.688;23.404;2023-01-19T01:59:40;11.27;;;3.27;;
18166;SDS011;9208;42.688;23.404;2023-01-19T02:02:14;16.73;;;3.33;;
18166;SDS011;9208;42.688;23.404;2023-01-19T02:05:09;12.67;;;3.10;;
18166;SDS011;9208;42.688;23.404;2023-01-19T02:10:34;15.93;;;2.63;;
18166;SDS011;9208;42.688;23.404;2023-01-19T02:13:18;16.80;;;2.97;;
18166;SDS011;9208;42.688;23.404;2023-01-19T02:15:45;14.87;;;3.30;;
18166;SDS011;9208;42.688;23.404;2023-01-19T02:18:16;12.23;;;3.23;;
18166;SDS011;9208;42.688;23.404;2023-01-19T02:20:45;10.97;;;2.67;;
18166;SDS011;9208;42.688;23.404;2023-01-19T02:23:19;13.63;;;2.87;;
18166;SDS011;9208;42.688;23.404;2023-01-19T02:25:57;13.83;;;3.17;;
18166;SDS011;9208;42.688;23.404;2023-01-19T02:28:27;15.37;;;3.53;;
18166;SDS011;9208;42.688;23.404;2023-01-19T02:30:55;14.53;;;2.90;;
18166;SDS011;9208;42.688;23.404;2023-01-19T02:33:20;15.27;;;2.90;;
18166;SDS011;9208;42.688;23.404;2023-01-19T02:35:46;17.73;;;2.63;;
18166;SDS011;9208;42.688;23.404;2023-01-19T02:38:15;14.23;;;2.70;;
18166;SDS011;9208;42.688;23.404;2023-01-19T02:40:43;10.10;;;2.73;;
18166;SDS011;9208;42.688;23.404;2023-01-19T02:43:10;13.40;;;2.70;;
18166;SDS011;9208;42.688;23.404;2023-01-19T02:45:35;15.33;;;2.90;;
18166;SDS011;9208;42.688;23.404;2023-01-19T02:48:03;12.17;;;2.80;;
18166;SDS011;9208;42.688;23.404;2023-01-19T02:50:37;17.20;;;2.83;;
18166;SDS011;9208;42.688;23.404;2023-01-19T02:55:46;13.67;;;2.77;;
18166;SDS011;9208;42.688;23.404;2023-01-19T02:58:29;16.33;;;2.77;;
18166;SDS011;9208;42.688;23.404;2023-01-19T03:01:08;10.37;;;2.50;;
18166;SDS011;9208;42.688;23.404;2023-01-19T03:04:15;11.00;;;2.57;;
18166;SDS011;9208;42.688;23.404;2023-01-19T03:06:50;8.90;;;2.57;;
18166;SDS011;9208;42.688;23.404;2023-01-19T03:12:01;13.37;;;2.90;;
18166;SDS011;9208;42.688;23.404;2023-01-19T03:14:33;11.00;;;2.73;;
18166;SDS011;9208;42.688;23.404;2023-01-19T03:17:06;15.13;;;2.50;;
18166;SDS011;9208;42.688;23.404;2023-01-19T03:19:38;14.40;;;2.80;;
18166;SDS011;9208;42.688;23.404;2023-01-19T03:22:14;11.73;;;2.73;;
18166;SDS011;9208;42.688;23.404;2023-01-19T03:24:46;9.13;;;2.50;;
18166;SDS011;9208;42.688;23.404;2023-01-19T03:27:14;10.33;;;2.53;;
18166;SDS011;9208;42.688;23.404;2023-01-19T03:29:46;14.43;;;3.27;;
18166;SDS011;9208;42.688;23.404;2023-01-19T03:32:16;13.00;;;2.70;;
18166;SDS011;9208;42.688;23.404;2023-01-19T03:34:46;13.20;;;2.60;;
18166;SDS011;9208;42.688;23.404;2023-01-19T03:37:13;12.57;;;2.63;;
18166;SDS011;9208;42.688;23.404;2023-01-19T03:39:40;13.80;;;2.73;;
18166;SDS011;9208;42.688;23.404;2023-01-19T03:42:10;11.03;;;3.97;;
18166;SDS011;9208;42.688;23.404;2023-01-19T03:44:40;10.80;;;2.40;;
18166;SDS011;9208;42.688;23.404;2023-01-19T03:47:08;22.37;;;3.27;;
18166;SDS011;9208;42.688;23.404;2023-01-19T03:49:35;16.20;;;2.83;;
18166;SDS011;9208;42.688;23.404;2023-01-19T03:52:03;20.77;;;3.33;;
18166;SDS011;9208;42.688;23.404;2023-01-19T03:54:29;16.47;;;2.63;;
18166;SDS011;9208;42.688;23.404;2023-01-19T03:56:55;12.77;;;2.77;;
18166;SDS011;9208;42.688;23.404;2023-01-19T03:59:20;16.00;;;3.20;;
18166;SDS011;9208;42.688;23.404;2023-01-19T04:01:46;17.53;;;3.27;;
18166;SDS011;9208;42.688;23.404;2023-01-19T04:04:12;17.37;;;3.53;;
18166;SDS011;9208;42.688;23.404;2023-01-19T04:06:38;16.67;;;3.20;;
18166;SDS011;9208;42.688;23.404;2023-01-19T04:09:04;22.10;;;3.83;;
18166;SDS011;9208;42.688;23.404;2023-01-19T04:11:29;16.77;;;3.47;;
18166;SDS011;9208;42.688;23.404;2023-01-19T04:13:55;15.83;;;3.70;;
18166;SDS011;9208;42.688;23.404;2023-01-19T04:16:20;22.63;;;4.07;;
18166;SDS011;9208;42.688;23.404;2023-01-19T04:18:47;21.33;;;3.50;;
18166;SDS011;9208;42.688;23.404;2023-01-19T04:21:13;27.63;;;4.73;;
18166;SDS011;9208;42.688;23.404;2023-01-19T04:23:38;19.30;;;4.23;;
18166;SDS011;9208;42.688;23.404;2023-01-19T04:26:04;20.90;;;4.33;;
18166;SDS011;9208;42.688;23.404;2023-01-19T04:28:31;26.93;;;4.40;;
18166;SDS011;9208;42.688;23.404;2023-01-19T04:30:57;22.83;;;5.00;;
18166;SDS011;9208;42.688;23.404;2023-01-19T04:33:23;22.50;;;4.43;;
18166;SDS011;9208;42.688;23.404;2023-01-19T04:35:49;24.13;;;4.50;;
18166;SDS011;9208;42.688;23.404;2023-01-19T04:38:17;23.07;;;4.50;;
18166;SDS011;9208;42.688;23.404;2023-01-19T04:40:43;22.27;;;4.43;;
18166;SDS011;9208;42.688;23.404;2023-01-19T04:43:09;21.63;;;4.57;;
18166;SDS011;9208;42.688;23.404;2023-01-19T04:45:34;26.27;;;4.57;;
18166;SDS011;9208;42.688;23.404;2023-01-19T04:48:00;24.77;;;5.30;;
18166;SDS011;9208;42.688;23.404;2023-01-19T04:50:28;18.57;;;4.67;;
18166;SDS011;9208;42.688;23.404;2023-01-19T04:52:54;27.93;;;5.57;;
18166;SDS011;9208;42.688;23.404;2023-01-19T04:55:19;26.83;;;5.33;;
18166;SDS011;9208;42.688;23.404;2023-01-19T04:57:44;29.27;;;5.23;;
18166;SDS011;9208;42.688;23.404;2023-01-19T05:00:10;26.83;;;5.37;;
18166;SDS011;9208;42.688;23.404;2023-01-19T05:02:36;19.33;;;4.53;;
18166;SDS011;9208;42.688;23.404;2023-01-19T05:05:02;19.07;;;5.07;;
18166;SDS011;9208;42.688;23.404;2023-01-19T05:07:27;20.53;;;4.57;;
18166;SDS011;9208;42.688;23.404;2023-01-19T05:09:53;24.10;;;5.83;;
18166;SDS011;9208;42.688;23.404;2023-01-19T05:12:19;19.97;;;4.57;;
18166;SDS011;9208;42.688;23.404;2023-01-19T05:14:44;23.23;;;4.83;;
18166;SDS011;9208;42.688;23.404;2023-01-19T05:17:10;33.33;;;5.73;;
18166;SDS011;9208;42.688;23.404;2023-01-19T05:19:35;25.97;;;5.07;;
18166;SDS011;9208;42.688;23.404;2023-01-19T05:22:02;17.33;;;4.20;;
18166;SDS011;9208;42.688;23.404;2023-01-19T05:24:28;19.77;;;4.77;;
18166;SDS011;9208;42.688;23.404;2023-01-19T05:26:54;14.90;;;3.80;;
18166;SDS011;9208;42.688;23.404;2023-01-19T05:29:19;19.30;;;4.13;;
18166;SDS011;9208;42.688;23.404;2023-01-19T05:31:45;20.60;;;4.40;;
18166;SDS011;9208;42.688;23.404;2023-01-19T05:34:11;22.67;;;3.97;;
18166;SDS011;9208;42.688;23.404;2023-01-19T05:36:36;20.17;;;4.43;;
18166;SDS011;9208;42.688;23.404;2023-01-19T05:39:02;22.27;;;5.23;;
18166;SDS011;9208;42.688;23.404;2023-01-19T05:41:28;26.37;;;4.83;;
18166;SDS011;9208;42.688;23.404;2023-01-19T05:43:54;29.67;;;6.20;;
18166;SDS011;9208;42.688;23.404;2023-01-19T05:46:19;20.60;;;4.17;;
18166;SDS011;9208;42.688;23.404;2023-01-19T05:48:45;20.67;;;4.00;;
18166;SDS011;9208;42.688;23.404;2023-01-19T05:51:10;21.33;;;4.20;;
18166;SDS011;9208;42.688;23.404;2023-01-19T05:53:36;21.20;;;4.80;;
18166;SDS011;9208;42.688;23.404;2023-01-19T05:56:02;20.60;;;4.40;;
18166;SDS011;9208;42.688;23.404;2023-01-19T05:58:29;21.23;;;4.37;;
18166;SDS011;9208;42.688;23.404;2023-01-19T06:00:55;25.20;;;4.50;;
18166;SDS011;9208;42.688;23.404;2023-01-19T06:03:21;28.47;;;5.17;;
18166;SDS011;9208;42.688;23.404;2023-01-19T06:05:46;27.03;;;6.00;;
18166;SDS011;9208;42.688;23.404;2023-01-19T06:08:12;33.93;;;5.60;;
18166;SDS011;9208;42.688;23.404;2023-01-19T06:10:38;17.87;;;4.80;;
18166;SDS011;9208;42.688;23.404;2023-01-19T06:13:03;27.33;;;6.00;;
18166;SDS011;9208;42.688;23.404;2023-01-19T06:15:29;26.10;;;5.17;;
18166;SDS011;9208;42.688;23.404;2023-01-19T06:17:55;28.43;;;5.87;;
18166;SDS011;9208;42.688;23.404;2023-01-19T06:20:20;22.17;;;4.57;;
18166;SDS011;9208;42.688;23.404;2023-01-19T06:22:46;21.43;;;4.90;;
18166;SDS011;9208;42.688;23.404;2023-01-19T06:25:12;26.80;;;5.37;;
18166;SDS011;9208;42.688;23.404;2023-01-19T06:27:37;36.23;;;5.63;;
18166;SDS011;9208;42.688;23.404;2023-01-19T06:30:07;26.20;;;5.10;;
18166;SDS011;9208;42.688;23.404;2023-01-19T06:32:33;27.60;;;4.83;;
18166;SDS011;9208;42.688;23.404;2023-01-19T06:34:58;24.80;;;5.03;;
18166;SDS011;9208;42.688;23.404;2023-01-19T06:37:24;28.53;;;5.40;;
18166;SDS011;9208;42.688;23.404;2023-01-19T06:39:51;20.73;;;4.90;;
18166;SDS011;9208;42.688;23.404;2023-01-19T06:42:16;20.30;;;5.40;;
18166;SDS011;9208;42.688;23.404;2023-01-19T06:44:42;25.40;;;5.03;;
18166;SDS011;9208;42.688;23.404;2023-01-19T06:47:11;24.40;;;5.47;;
18166;SDS011;9208;42.688;23.404;2023-01-19T06:49:38;26.63;;;5.30;;
18166;SDS011;9208;42.688;23.404;2023-01-19T06:52:03;25.10;;;5.63;;
18166;SDS011;9208;42.688;23.404;2023-01-19T06:54:29;20.57;;;5.53;;
18166;SDS011;9208;42.688;23.404;2023-01-19T06:56:54;26.27;;;5.07;;
18166;SDS011;9208;42.688;23.404;2023-01-19T06:59:19;23.20;;;5.20;;
18166;SDS011;9208;42.688;23.404;2023-01-19T07:01:45;25.20;;;5.20;;
18166;SDS011;9208;42.688;23.404;2023-01-19T07:04:10;25.73;;;5.50;;
18166;SDS011;9208;42.688;23.404;2023-01-19T07:06:38;21.70;;;4.67;;
18166;SDS011;9208;42.688;23.404;2023-01-19T07:09:04;19.80;;;4.50;;
18166;SDS011;9208;42.688;23.404;2023-01-19T07:11:32;14.13;;;4.17;;
18166;SDS011;9208;42.688;23.404;2023-01-19T07:13:57;15.50;;;4.60;;
18166;SDS011;9208;42.688;23.404;2023-01-19T07:16:22;17.17;;;4.03;;
18166;SDS011;9208;42.688;23.404;2023-01-19T07:18:48;22.20;;;4.73;;
18166;SDS011;9208;42.688;23.404;2023-01-19T07:21:14;18.47;;;4.10;;
18166;SDS011;9208;42.688;23.404;2023-01-19T07:23:39;17.80;;;4.13;;
18166;SDS011;9208;42.688;23.404;2023-01-19T07:26:05;24.30;;;5.87;;
18166;SDS011;9208;42.688;23.404;2023-01-19T07:28:30;26.97;;;4.90;;
18166;SDS011;9208;42.688;23.404;2023-01-19T07:30:56;20.60;;;5.00;;
18166;SDS011;9208;42.688;23.404;2023-01-19T07:33:22;18.80;;;4.33;;
18166;SDS011;9208;42.688;23.404;2023-01-19T07:35:50;27.83;;;6.47;;
18166;SDS011;9208;42.688;23.404;2023-01-19T07:38:16;30.20;;;5.43;;
18166;SDS011;9208;42.688;23.404;2023-01-19T07:40:43;27.70;;;5.50;;
18166;SDS011;9208;42.688;23.404;2023-01-19T07:43:11;30.03;;;5.17;;
18166;SDS011;9208;42.688;23.404;2023-01-19T07:45:37;26.20;;;4.87;;
18166;SDS011;9208;42.688;23.404;2023-01-19T07:48:02;23.77;;;4.90;;
18166;SDS011;9208;42.688;23.404;2023-01-19T07:50:29;24.67;;;4.97;;
18166;SDS011;9208;42.688;23.404;2023-01-19T07:52:55;28.13;;;5.20;;
18166;SDS011;9208;42.688;23.404;2023-01-19T07:55:21;25.27;;;5.53;;
18166;SDS011;9208;42.688;23.404;2023-01-19T07:57:48;22.10;;;4.50;;
18166;SDS011;9208;42.688;23.404;2023-01-19T08:00:17;22.73;;;5.40;;
18166;SDS011;9208;42.688;23.404;2023-01-19T08:02:46;23.60;;;4.90;;
18166;SDS011;9208;42.688;23.404;2023-01-19T08:05:14;27.63;;;4.87;;
18166;SDS011;9208;42.688;23.404;2023-01-19T08:07:40;36.90;;;6.13;;
18166;SDS011;9208;42.688;23.404;2023-01-19T08:10:06;26.27;;;6.33;;
18166;SDS011;9208;42.688;23.404;2023-01-19T08:12:33;28.03;;;5.57;;
18166;SDS011;9208;42.688;23.404;2023-01-19T08:14:58;21.63;;;5.60;;
18166;SDS011;9208;42.688;23.404;2023-01-19T08:17:24;21.63;;;5.80;;
18166;SDS011;9208;42.688;23.404;2023-01-19T08:19:49;31.00;;;5.93;;
18166;SDS011;9208;42.688;23.404;2023-01-19T08:22:15;31.33;;;5.77;;
18166;SDS011;9208;42.688;23.404;2023-01-19T08:24:40;30.27;;;5.47;;
18166;SDS011;9208;42.688;23.404;2023-01-19T08:27:05;37.43;;;5.83;;
18166;SDS011;9208;42.688;23.404;2023-01-19T08:29:33;34.77;;;6.70;;
18166;SDS011;9208;42.688;23.404;2023-01-19T08:31:59;27.30;;;4.93;;
18166;SDS011;9208;42.688;23.404;2023-01-19T08:34:26;28.17;;;6.73;;
18166;SDS011;9208;42.688;23.404;2023-01-19T08:36:54;36.23;;;6.50;;
18166;SDS011;9208;42.688;23.404;2023-01-19T08:39:19;29.23;;;5.40;;
18166;SDS011;9208;42.688;23.404;2023-01-19T08:41:47;27.17;;;5.43;;
18166;SDS011;9208;42.688;23.404;2023-01-19T08:44:16;26.00;;;5.67;;
18166;SDS011;9208;42.688;23.404;2023-01-19T08:46:42;29.40;;;5.83;;
18166;SDS011;9208;42.688;23.404;2023-01-19T08:49:07;25.70;;;5.10;;
18166;SDS011;9208;42.688;23.404;2023-01-19T08:51:33;29.23;;;6.37;;
18166;SDS011;9208;42.688;23.404;2023-01-19T08:53:58;23.70;;;4.97;;
18166;SDS011;9208;42.688;23.404;2023-01-19T08:56:24;28.83;;;5.10;;
18166;SDS011;9208;42.688;23.404;2023-01-19T08:58:50;23.00;;;5.00;;
18166;SDS011;9208;42.688;23.404;2023-01-19T09:01:16;30.00;;;5.07;;
18166;SDS011;9208;42.688;23.404;2023-01-19T09:03:42;27.00;;;4.37;;
18166;SDS011;9208;42.688;23.404;2023-01-19T09:06:08;24.57;;;5.10;;
18166;SDS011;9208;42.688;23.404;2023-01-19T09:08:35;23.63;;;4.77;;
18166;SDS011;9208;42.688;23.404;2023-01-19T09:11:00;29.50;;;5.40;;
18166;SDS011;9208;42.688;23.404;2023-01-19T09:13:26;29.40;;;5.13;;
18166;SDS011;9208;42.688;23.404;2023-01-19T09:15:51;25.70;;;6.07;;
18166;SDS011;9208;42.688;23.404;2023-01-19T09:18:18;22.23;;;5.87;;
18166;SDS011;9208;42.688;23.404;2023-01-19T09:20:46;22.73;;;4.63;;
18166;SDS011;9208;42.688;23.404;2023-01-19T09:23:13;24.80;;;4.63;;
18166;SDS011;9208;42.688;23.404;2023-01-19T09:25:41;22.63;;;5.10;;
18166;SDS011;9208;42.688;23.404;2023-01-19T09:28:10;25.47;;;4.60;;
18166;SDS011;9208;42.688;23.404;2023-01-19T09:30:37;18.53;;;4.37;;
18166;SDS011;9208;42.688;23.404;2023-01-19T09:33:04;26.27;;;5.07;;
18166;SDS011;9208;42.688;23.404;2023-01-19T09:35:33;22.73;;;4.43;;
18166;SDS011;9208;42.688;23.404;2023-01-19T09:37:59;20.37;;;4.80;;
18166;SDS011;9208;42.688;23.404;2023-01-19T09:40:25;21.00;;;4.23;;
18166;SDS011;9208;42.688;23.404;2023-01-19T09:45:33;27.37;;;4.40;;
18166;SDS011;9208;42.688;23.404;2023-01-19T09:48:04;17.67;;;3.63;;
18166;SDS011;9208;42.688;23.404;2023-01-19T09:50:42;18.53;;;4.10;;
18166;SDS011;9208;42.688;23.404;2023-01-19T09:53:13;20.40;;;3.30;;
18166;SDS011;9208;42.688;23.404;2023-01-19T09:55:45;19.20;;;3.00;;
18166;SDS011;9208;42.688;23.404;2023-01-19T09:58:12;17.13;;;3.47;;
18166;SDS011;9208;42.688;23.404;2023-01-19T10:00:41;15.17;;;3.37;;
18166;SDS011;9208;42.688;23.404;2023-01-19T10:03:15;17.20;;;3.30;;
18166;SDS011;9208;42.688;23.404;2023-01-19T10:05:42;17.43;;;2.97;;
18166;SDS011;9208;42.688;23.404;2023-01-19T10:10:53;13.07;;;3.30;;
18166;SDS011;9208;42.688;23.404;2023-01-19T10:18:42;18.27;;;3.63;;
18166;SDS011;9208;42.688;23.404;2023-01-19T10:24:27;11.57;;;3.10;;
18166;SDS011;9208;42.688;23.404;2023-01-19T10:26:57;10.47;;;2.37;;
18166;SDS011;9208;42.688;23.404;2023-01-19T10:29:27;14.07;;;2.97;;
18166;SDS011;9208;42.688;23.404;2023-01-19T10:32:09;14.20;;;3.17;;
18166;SDS011;9208;42.688;23.404;2023-01-19T10:34:37;18.83;;;2.97;;
18166;SDS011;9208;42.688;23.404;2023-01-19T10:37:25;15.40;;;3.07;;
18166;SDS011;9208;42.688;23.404;2023-01-19T10:39:53;9.50;;;2.77;;
18166;SDS011;9208;42.688;23.404;2023-01-19T10:42:21;10.57;;;3.00;;
18166;SDS011;9208;42.688;23.404;2023-01-19T10:44:46;13.27;;;3.53;;
18166;SDS011;9208;42.688;23.404;2023-01-19T10:47:17;16.00;;;3.77;;
18166;SDS011;9208;42.688;23.404;2023-01-19T10:49:45;10.00;;;2.80;;
18166;SDS011;9208;42.688;23.404;2023-01-19T10:54:55;16.60;;;3.50;;
18166;SDS011;9208;42.688;23.404;2023-01-19T10:57:24;14.03;;;2.87;;
18166;SDS011;9208;42.688;23.404;2023-01-19T10:59:52;16.43;;;3.03;;
18166;SDS011;9208;42.688;23.404;2023-01-19T11:02:25;17.70;;;2.83;;
18166;SDS011;9208;42.688;23.404;2023-01-19T11:04:54;11.80;;;3.00;;
18166;SDS011;9208;42.688;23.404;2023-01-19T11:10:12;17.37;;;3.23;;
18166;SDS011;9208;42.688;23.404;2023-01-19T11:15:15;15.20;;;2.53;;
18166;SDS011;9208;42.688;23.404;2023-01-19T11:17:47;14.20;;;2.80;;
18166;SDS011;9208;42.688;23.404;2023-01-19T11:20:20;14.90;;;3.63;;
18166;SDS011;9208;42.688;23.404;2023-01-19T11:25:38;16.17;;;3.10;;
18166;SDS011;9208;42.688;23.404;2023-01-19T11:28:04;10.80;;;2.93;;
18166;SDS011;9208;42.688;23.404;2023-01-19T11:30:31;13.87;;;2.73;;
18166;SDS011;9208;42.688;23.404;2023-01-19T11:32:58;13.83;;;2.53;;
18166;SDS011;9208;42.688;23.404;2023-01-19T11:35:42;14.23;;;3.07;;
18166;SDS011;9208;42.688;23.404;2023-01-19T11:40:35;14.60;;;3.03;;
18166;SDS011;9208;42.688;23.404;2023-01-19T11:43:02;16.13;;;2.90;;
18166;SDS011;9208;42.688;23.404;2023-01-19T11:45:28;13.87;;;3.70;;
18166;SDS011;9208;42.688;23.404;2023-01-19T11:47:53;11.93;;;2.90;;
18166;SDS011;9208;42.688;23.404;2023-01-19T11:50:26;8.03;;;2.33;;
18166;SDS011;9208;42.688;23.404;2023-01-19T11:58:30;15.00;;;2.73;;
18166;SDS011;9208;42.688;23.404;2023-01-19T12:01:02;11.33;;;2.90;;
18166;SDS011;9208;42.688;23.404;2023-01-19T12:03:42;11.07;;;2.60;;
18166;SDS011;9208;42.688;23.404;2023-01-19T12:06:20;10.53;;;2.60;;
18166;SDS011;9208;42.688;23.404;2023-01-19T12:08:51;7.30;;;2.13;;
18166;SDS011;9208;42.688;23.404;2023-01-19T12:11:25;8.70;;;2.27;;
18166;SDS011;9208;42.688;23.404;2023-01-19T12:13:55;9.00;;;2.20;;
18166;SDS011;9208;42.688;23.404;2023-01-19T12:16:22;8.80;;;2.30;;
18166;SDS011;9208;42.688;23.404;2023-01-19T12:19:05;7.97;;;2.57;;
18166;SDS011;9208;42.688;23.404;2023-01-19T12:21:43;13.93;;;2.57;;
18166;SDS011;9208;42.688;23.404;2023-01-19T12:24:15;8.93;;;2.80;;
18166;SDS011;9208;42.688;23.404;2023-01-19T12:26:56;8.40;;;2.00;;
18166;SDS011;9208;42.688;23.404;2023-01-19T12:29:25;10.03;;;2.40;;
18166;SDS011;9208;42.688;23.404;2023-01-19T12:34:40;7.70;;;2.30;;
18166;SDS011;9208;42.688;23.404;2023-01-19T12:39:55;8.90;;;2.60;;
18166;SDS011;9208;42.688;23.404;2023-01-19T12:42:23;4.77;;;2.10;;
18166;SDS011;9208;42.688;23.404;2023-01-19T12:47:28;10.23;;;2.53;;
18166;SDS011;9208;42.688;23.404;2023-01-19T12:49:54;8.97;;;2.97;;
18166;SDS011;9208;42.688;23.404;2023-01-19T12:52:39;11.07;;;3.13;;
18166;SDS011;9208;42.688;23.404;2023-01-19T12:57:39;10.43;;;2.70;;
18166;SDS011;9208;42.688;23.404;2023-01-19T13:03:00;12.57;;;2.47;;
18166;SDS011;9208;42.688;23.404;2023-01-19T13:15:53;9.97;;;2.40;;
18166;SDS011;9208;42.688;23.404;2023-01-19T13:18:21;8.60;;;2.87;;
18166;SDS011;9208;42.688;23.404;2023-01-19T13:20:49;8.47;;;2.37;;
18166;SDS011;9208;42.688;23.404;2023-01-19T13:23:50;8.60;;;2.97;;
18166;SDS011;9208;42.688;23.404;2023-01-19T13:26:19;8.83;;;2.63;;
18166;SDS011;9208;42.688;23.404;2023-01-19T13:28:52;7.53;;;2.23;;
18166;SDS011;9208;42.688;23.404;2023-01-19T13:31:21;11.27;;;2.43;;
18166;SDS011;9208;42.688;23.404;2023-01-19T13:33:49;5.87;;;2.07;;
18166;SDS011;9208;42.688;23.404;2023-01-19T13:39:02;7.40;;;1.87;;
18166;SDS011;9208;42.688;23.404;2023-01-19T13:41:33;5.07;;;1.57;;
18166;SDS011;9208;42.688;23.404;2023-01-19T13:44:24;5.60;;;2.13;;
18166;SDS011;9208;42.688;23.404;2023-01-19T13:46:52;6.70;;;1.97;;
18166;SDS011;9208;42.688;23.404;2023-01-19T13:52:10;5.27;;;1.73;;
18166;SDS011;9208;42.688;23.404;2023-01-19T13:54:47;9.10;;;1.63;;
18166;SDS011;9208;42.688;23.404;2023-01-19T13:57:32;8.10;;;2.00;;
18166;SDS011;9208;42.688;23.404;2023-01-19T14:00:14;6.23;;;1.93;;
18166;SDS011;9208;42.688;23.404;2023-01-19T14:02:57;7.50;;;2.20;;
18166;SDS011;9208;42.688;23.404;2023-01-19T14:07:59;7.03;;;2.23;;
18166;SDS011;9208;42.688;23.404;2023-01-19T14:10:24;4.63;;;1.70;;
18166;SDS011;9208;42.688;23.404;2023-01-19T14:12:57;10.47;;;2.20;;
18166;SDS011;9208;42.688;23.404;2023-01-19T14:15:24;5.87;;;2.00;;
18166;SDS011;9208;42.688;23.404;2023-01-19T14:18:06;5.37;;;1.80;;
18166;SDS011;9208;42.688;23.404;2023-01-19T14:20:32;9.57;;;2.53;;
18166;SDS011;9208;42.688;23.404;2023-01-19T14:23:00;7.83;;;1.83;;
18166;SDS011;9208;42.688;23.404;2023-01-19T14:25:30;3.73;;;1.43;;
18166;SDS011;9208;42.688;23.404;2023-01-19T14:31:19;10.03;;;1.50;;
18166;SDS011;9208;42.688;23.404;2023-01-19T14:33:45;6.03;;;2.17;;
18166;SDS011;9208;42.688;23.404;2023-01-19T14:38:43;8.13;;;1.80;;
18166;SDS011;9208;42.688;23.404;2023-01-19T14:41:10;5.63;;;1.70;;
18166;SDS011;9208;42.688;23.404;2023-01-19T14:43:41;4.37;;;1.57;;
18166;SDS011;9208;42.688;23.404;2023-01-19T14:46:16;8.13;;;1.80;;
18166;SDS011;9208;42.688;23.404;2023-01-19T14:48:46;5.77;;;1.90;;
18166;SDS011;9208;42.688;23.404;2023-01-19T14:51:17;6.17;;;1.93;;
18166;SDS011;9208;42.688;23.404;2023-01-19T14:53:48;7.97;;;2.63;;
18166;SDS011;9208;42.688;23.404;2023-01-19T14:56:24;5.97;;;2.07;;
18166;SDS011;9208;42.688;23.404;2023-01-19T14:58:51;5.00;;;1.70;;
18166;SDS011;9208;42.688;23.404;2023-01-19T15:01:17;6.27;;;1.80;;
18166;SDS011;9208;42.688;23.404;2023-01-19T15:03:42;7.30;;;1.97;;
18166;SDS011;9208;42.688;23.404;2023-01-19T15:06:15;5.50;;;1.97;;
18166;SDS011;9208;42.688;23.404;2023-01-19T15:08:42;7.07;;;1.97;;
18166;SDS011;9208;42.688;23.404;2023-01-19T15:11:15;7.20;;;1.77;;
18166;SDS011;9208;42.688;23.404;2023-01-19T15:13:46;6.87;;;2.03;;
18166;SDS011;9208;42.688;23.404;2023-01-19T15:16:12;6.73;;;2.20;;
18166;SDS011;9208;42.688;23.404;2023-01-19T15:18:37;4.17;;;2.07;;
18166;SDS011;9208;42.688;23.404;2023-01-19T15:21:03;4.27;;;1.73;;
18166;SDS011;9208;42.688;23.404;2023-01-19T15:23:29;5.00;;;1.80;;
18166;SDS011;9208;42.688;23.404;2023-01-19T15:25:58;7.30;;;2.13;;
18166;SDS011;9208;42.688;23.404;2023-01-19T15:28:25;8.70;;;2.60;;
18166;SDS011;9208;42.688;23.404;2023-01-19T15:30:51;8.27;;;2.70;;
18166;SDS011;9208;42.688;23.404;2023-01-19T15:33:22;6.90;;;2.13;;
18166;SDS011;9208;42.688;23.404;2023-01-19T15:35:51;6.40;;;2.10;;
18166;SDS011;9208;42.688;23.404;2023-01-19T15:38:16;5.20;;;2.60;;
18166;SDS011;9208;42.688;23.404;2023-01-19T15:40:42;8.93;;;2.83;;
18166;SDS011;9208;42.688;23.404;2023-01-19T15:43:09;7.10;;;2.57;;
18166;SDS011;9208;42.688;23.404;2023-01-19T15:48:18;10.83;;;2.27;;
18166;SDS011;9208;42.688;23.404;2023-01-19T15:50:44;9.63;;;2.20;;
18166;SDS011;9208;42.688;23.404;2023-01-19T15:53:13;4.70;;;1.87;;
18166;SDS011;9208;42.688;23.404;2023-01-19T15:55:41;6.40;;;2.07;;
18166;SDS011;9208;42.688;23.404;2023-01-19T15:58:06;6.27;;;2.03;;
18166;SDS011;9208;42.688;23.404;2023-01-19T16:00:32;6.70;;;2.07;;
18166;SDS011;9208;42.688;23.404;2023-01-19T16:02:59;4.10;;;1.97;;
18166;SDS011;9208;42.688;23.404;2023-01-19T16:05:25;8.83;;;1.87;;
18166;SDS011;9208;42.688;23.404;2023-01-19T16:07:50;4.90;;;1.50;;
18166;SDS011;9208;42.688;23.404;2023-01-19T16:10:16;3.57;;;1.80;;
18166;SDS011;9208;42.688;23.404;2023-01-19T16:12:42;4.40;;;1.70;;